Time;durP1;ratioP1;P1;durP2;ratioP2;P2;SDS_P1;SDS_P2;PMS_P1;PMS_P2;Temp;Humidity;BMP_temperature;BMP_pressure;BME280_temperature;BME280_humidity;BME280_pressure;Samples;Min_cycle;Max_cycle;Signal;HPM_P1;HPM_P2
2022/08/01 00:00:20;;;;;;;9.90;2.70;;;;;;;23.05;57.00;99725.97;12187342;19;20013;-78
2022/08/01 00:04:22;;;;;;;5.32;2.22;;;;;;;22.97;57.49;99731.31;12174172;19;20010;-78
2022/08/01 00:08:23;;;;;;;9.60;2.50;;;;;;;22.93;57.83;99733.09;12192392;19;20010;-78
2022/08/01 00:12:25;;;;;;;3.38;1.92;;;;;;;22.88;58.04;99732.47;12195839;19;20014;-78
2022/08/01 00:16:27;;;;;;;3.90;2.13;;;;;;;22.85;57.96;99739.56;12169407;19;20027;-78
2022/08/01 00:20:28;;;;;;;3.80;2.20;;;;;;;22.79;58.33;99732.47;12188820;19;20013;-78
2022/08/01 00:24:30;;;;;;;3.22;2.20;;;;;;;22.74;58.41;99733.47;12201027;19;20009;-78
2022/08/01 00:28:32;;;;;;;3.80;1.98;;;;;;;22.72;59.03;99735.75;12174697;19;20018;-78
2022/08/01 00:32:33;;;;;;;5.33;2.20;;;;;;;22.70;59.27;99735.28;12183206;19;20006;-78
2022/08/01 00:36:35;;;;;;;5.03;2.20;;;;;;;22.70;59.46;99735.28;12189810;19;20024;-78
2022/08/01 00:40:37;;;;;;;4.80;2.17;;;;;;;22.69;59.32;99738.44;12188999;19;20497;-78
2022/08/01 00:44:39;;;;;;;3.72;1.88;;;;;;;22.68;59.59;99739.59;12208744;19;20007;-78
2022/08/01 00:48:41;;;;;;;;;;;;;;;22.66;60.21;99737.09;12207344;19;20007;-78
2022/08/01 00:52:43;;;;;;;3.90;2.17;;;;;;;22.69;59.90;99733.63;12188031;19;19943;-79
2022/08/01 00:56:53;;;;;;;4.32;2.20;;;;;;;22.71;59.58;99736.13;12210415;19;20011;-79
2022/08/01 01:00:55;;;;;;;3.67;2.25;;;;;;;22.71;59.98;99742.56;12200813;19;20006;-79
2022/08/01 01:04:58;;;;;;;5.40;2.08;;;;;;;22.71;59.88;99741.72;12172428;19;20014;-78
2022/08/01 01:09:17;;;;;;;3.53;2.47;;;;;;;22.70;60.51;99734.47;12206290;19;20007;-79
2022/08/01 01:13:37;;;;;;;3.13;2.00;;;;;;;22.68;60.50;99743.22;12184076;19;20121;-80
2022/08/01 01:18:06;;;;;;;4.13;1.63;;;;;;;22.70;60.62;99746.53;12206805;19;20039;-80
2022/08/01 01:22:27;;;;;;;3.90;1.63;;;;;;;22.72;60.97;99740.56;12205153;19;20046;-79
2022/08/01 01:26:40;;;;;;;2.90;2.10;;;;;;;22.74;60.40;99749.50;12182831;19;20002;-79
2022/08/01 01:30:44;;;;;;;2.72;1.80;;;;;;;22.73;60.76;99745.88;12223612;19;20045;-79
2022/08/01 01:34:49;;;;;;;2.53;1.90;;;;;;;22.72;60.37;99749.81;12231277;19;20014;-80
2022/08/01 01:38:52;;;;;;;4.07;1.85;;;;;;;22.68;61.23;99743.22;12213174;19;20017;-79
2022/08/01 01:42:56;;;;;;;2.60;1.60;;;;;;;22.60;61.33;99746.84;12212548;19;20532;-79
2022/08/01 01:47:00;;;;;;;4.57;1.75;;;;;;;22.48;61.74;99750.34;12176706;19;20414;-78
2022/08/01 01:51:04;;;;;;;3.22;1.50;;;;;;;22.37;62.17;99754.66;12206955;19;20016;-79
2022/08/01 01:55:08;;;;;;;4.05;1.83;;;;;;;22.25;62.70;99766.53;12199812;19;20394;-79
2022/08/01 01:59:10;;;;;;;5.03;2.00;;;;;;;22.11;63.26;99757.41;12182459;19;20010;-79
2022/08/01 02:03:12;;;;;;;7.53;2.60;;;;;;;21.96;63.57;99761.50;12199537;19;20064;-80
2022/08/01 02:07:21;;;;;;;7.90;1.98;;;;;;;21.82;64.49;99761.63;12210992;19;20006;-80
2022/08/01 02:11:22;;;;;;;3.83;1.65;;;;;;;21.72;65.02;99761.13;12188243;19;20090;-78
2022/08/01 02:15:25;;;;;;;3.45;1.67;;;;;;;21.62;65.29;99770.63;12195383;19;20122;-80
2022/08/01 02:19:27;;;;;;;3.33;1.80;;;;;;;21.52;65.61;99770.94;12186513;19;20536;-79
2022/08/01 02:23:33;;;;;;;3.57;1.57;;;;;;;21.41;66.30;99767.59;12214469;19;20014;-78
2022/08/01 02:28:01;;;;;;;2.55;1.88;;;;;;;21.31;67.40;99768.69;12201257;19;20017;-79
2022/08/01 02:32:04;;;;;;;2.70;1.63;;;;;;;21.21;67.18;99782.97;12177130;19;20028;-78
2022/08/01 02:36:07;;;;;;;2.15;1.70;;;;;;;21.16;67.43;99775.53;12204562;19;20010;-78
2022/08/01 02:40:32;;;;;;;5.03;1.63;;;;;;;21.22;67.78;99783.81;12179286;19;20031;-78
2022/08/01 02:44:38;;;;;;;5.50;1.52;;;;;;;21.31;67.90;99773.47;12192939;19;20356;-79
2022/08/01 02:48:42;;;;;;;3.42;1.42;;;;;;;21.38;67.68;99774.66;12198838;19;20512;-78
2022/08/01 02:52:48;;;;;;;2.22;1.40;;;;;;;21.45;68.27;99763.00;12182344;19;20014;-78
2022/08/01 02:56:52;;;;;;;2.10;1.45;;;;;;;21.54;67.80;99769.47;12202008;19;20085;-78
2022/08/01 03:00:56;;;;;;;2.75;1.52;;;;;;;21.59;67.60;99766.53;12199594;19;20540;-79
2022/08/01 03:05:00;;;;;;;2.70;1.50;;;;;;;21.68;67.16;99776.94;12173372;19;20013;-79
2022/08/01 03:09:03;;;;;;;3.35;1.50;;;;;;;21.72;67.42;99767.56;12199224;19;20510;-79
2022/08/01 03:13:08;;;;;;;1.77;1.40;;;;;;;21.80;67.13;99763.97;12198377;19;20074;-79
2022/08/01 03:17:11;;;;;;;2.20;1.25;;;;;;;21.84;66.74;99773.34;12181696;19;20378;-79
2022/08/01 03:21:13;;;;;;;2.90;1.48;;;;;;;21.89;66.69;99772.38;12194193;19;20093;-78
2022/08/01 03:25:17;;;;;;;4.53;1.90;;;;;;;21.91;66.85;99777.66;12206782;19;20073;-78
2022/08/01 03:29:24;;;;;;;3.28;1.50;;;;;;;21.96;66.69;99774.72;12167381;19;20508;-78
2022/08/01 03:33:26;;;;;;;3.10;1.40;;;;;;;21.96;66.22;99777.53;12188396;19;20018;-79
2022/08/01 03:37:45;;;;;;;2.37;1.50;;;;;;;21.95;66.42;99775.84;12177403;19;20085;-79
2022/08/01 03:42:13;;;;;;;2.72;1.30;;;;;;;21.84;67.19;99778.97;12201737;19;20038;-79
2022/08/01 03:46:41;;;;;;;3.72;1.40;;;;;;;21.71;67.23;99767.88;12187661;19;20018;-78
2022/08/01 03:50:47;;;;;;;2.10;1.38;;;;;;;21.55;67.74;99778.72;12178087;19;20046;-78
2022/08/01 03:54:53;;;;;;;2.10;1.30;;;;;;;21.42;68.29;99779.63;12193155;19;20082;-78
2022/08/01 03:58:54;;;;;;;1.63;0.90;;;;;;;21.29;69.04;99781.34;12166605;19;20350;-78
2022/08/01 04:02:56;;;;;;;4.03;1.50;;;;;;;21.23;69.22;99783.47;12190432;19;20021;-78
2022/08/01 04:07:03;;;;;;;2.83;1.47;;;;;;;21.19;69.31;99776.03;12189971;19;20014;-78
2022/08/01 04:11:07;;;;;;;4.70;1.63;;;;;;;21.12;70.04;99782.13;12177283;19;20552;-79
2022/08/01 04:15:09;;;;;;;1.80;1.27;;;;;;;21.10;70.01;99784.41;12191647;19;20014;-79
2022/08/01 04:19:10;;;;;;;3.42;1.38;;;;;;;21.00;70.62;99787.44;12199517;19;20083;-80
2022/08/01 04:23:15;;;;;;;3.63;1.55;;;;;;;20.91;71.28;99788.25;12186115;19;20036;-80
2022/08/01 04:27:25;;;;;;;4.35;1.63;;;;;;;20.85;71.80;99783.91;12212687;19;20007;-80
2022/08/01 04:31:49;;;;;;;2.25;1.45;;;;;;;20.78;72.26;99782.69;12175061;19;20013;-79
2022/08/01 04:35:52;;;;;;;2.25;1.42;;;;;;;20.70;71.88;99787.94;12189409;19;20017;-79
2022/08/01 04:40:06;;;;;;;2.95;1.60;;;;;;;20.62;72.85;99802.69;12192292;19;20123;-79
2022/08/01 04:44:08;;;;;;;4.70;1.83;;;;;;;20.55;73.60;99804.25;12179379;19;20074;-79
2022/08/01 04:48:11;;;;;;;2.77;1.53;;;;;;;20.52;73.76;99808.50;12191497;19;20096;-80
2022/08/01 04:52:12;;;;;;;;;;;;;;;20.47;74.01;99805.81;12199099;19;20363;-79
2022/08/01 04:56:20;;;;;;;2.88;1.35;;;;;;;20.45;74.19;99811.72;12162098;19;19939;-79
2022/08/01 05:00:22;;;;;;;2.78;1.52;;;;;;;20.46;74.68;99819.00;12196666;19;20019;-80
2022/08/01 05:04:24;;;;;;;2.10;1.30;;;;;;;20.55;74.42;99821.88;12170509;19;20101;-80
2022/08/01 05:08:25;;;;;;;3.58;1.70;;;;;;;20.79;74.52;99838.41;12207875;19;20015;-79
2022/08/01 05:12:27;;;;;;;2.03;1.35;;;;;;;21.09;73.88;99821.94;12236000;19;20002;-81
2022/08/01 05:16:28;;;;;;;5.38;1.77;;;;;;;21.38;72.73;99829.91;12177842;19;20070;-80
2022/08/01 05:20:30;;;;;;;3.60;1.80;;;;;;;21.60;71.60;99829.88;12191884;19;20030;-80
2022/08/01 05:24:34;;;;;;;2.63;1.50;;;;;;;21.76;71.48;99835.84;12201124;19;20011;-79
2022/08/01 05:28:37;;;;;;;3.85;1.67;;;;;;;21.95;70.50;99834.75;12185051;19;20016;-78
2022/08/01 05:32:38;;;;;;;3.17;1.80;;;;;;;22.15;69.82;99836.16;12192577;19;20014;-79
2022/08/01 05:36:40;;;;;;;5.27;1.87;;;;;;;22.32;69.51;99836.22;12206049;19;20010;-79
2022/08/01 05:40:42;;;;;;;3.83;1.55;;;;;;;22.45;68.91;99840.84;12177720;19;20365;-79
2022/08/01 05:44:43;;;;;;;3.33;1.58;;;;;;;22.60;68.04;99847.13;12203433;19;20078;-78
2022/08/01 05:48:45;;;;;;;2.25;1.33;;;;;;;22.65;67.81;99838.56;12199071;19;20018;-79
2022/08/01 05:52:47;;;;;;;2.83;1.75;;;;;;;22.67;67.10;99837.06;12169654;19;20034;-79
2022/08/01 05:56:48;;;;;;;2.75;1.40;;;;;;;22.68;67.22;99849.94;12192212;19;20010;-79
2022/08/01 06:00:51;;;;;;;5.15;1.83;;;;;;;22.60;67.62;99847.13;12202785;19;20030;-80
2022/08/01 06:04:53;;;;;;;3.20;1.63;;;;;;;22.65;67.20;99845.00;12186341;19;20006;-80
2022/08/01 06:08:54;;;;;;;7.03;1.70;;;;;;;22.70;67.47;99853.25;12205445;19;20062;-82
2022/08/01 06:12:56;;;;;;;3.03;1.60;;;;;;;22.67;67.39;99853.94;12190112;19;20652;-82
2022/08/01 06:16:58;;;;;;;1.90;1.40;;;;;;;22.61;67.54;99849.63;12180331;19;20030;-81
2022/08/01 06:20:59;;;;;;;2.97;1.20;;;;;;;22.62;67.40;99858.88;12200767;19;20484;-79
2022/08/01 06:25:01;;;;;;;4.90;1.70;;;;;;;22.59;67.64;99863.16;12213028;19;20015;-81
2022/08/01 06:29:03;;;;;;;2.25;1.40;;;;;;;22.61;67.68;99866.47;12182040;19;20015;-80
2022/08/01 06:33:05;;;;;;;5.33;1.70;;;;;;;22.65;67.66;99869.44;12210722;19;20023;-80
2022/08/01 06:37:06;;;;;;;2.83;1.70;;;;;;;22.85;67.52;99866.00;12202499;19;20058;-80
2022/08/01 06:41:08;;;;;;;4.07;1.73;;;;;;;23.03;66.95;99869.66;12185101;19;20110;-80
2022/08/01 06:45:11;;;;;;;2.75;1.40;;;;;;;23.22;66.47;99868.47;12200053;19;20015;-81
2022/08/01 06:49:13;;;;;;;2.28;1.40;;;;;;;23.38;65.78;99873.25;12197777;19;20010;-80
2022/08/01 06:53:14;;;;;;;3.27;1.60;;;;;;;23.62;65.27;99874.66;12186946;19;20010;-81
2022/08/01 06:57:17;;;;;;;2.87;1.50;;;;;;;23.81;64.96;99877.09;12207782;19;20477;-82
2022/08/01 07:01:18;;;;;;;2.27;1.47;;;;;;;23.94;63.99;99875.22;12183365;19;20236;-82
2022/08/01 07:05:22;;;;;;;4.57;1.70;;;;;;;24.05;63.71;99874.50;12204525;19;20014;-82
2022/08/01 07:09:24;;;;;;;2.70;1.85;;;;;;;24.11;63.02;99872.34;12202757;19;20002;-82
2022/08/01 07:13:26;;;;;;;7.97;2.87;;;;;;;24.21;62.86;99869.16;12185009;19;20103;-81
2022/08/01 07:17:46;;;;;;;4.45;2.08;;;;;;;24.30;62.08;99880.34;12202102;19;20575;-81
2022/08/01 07:21:47;;;;;;;5.73;1.90;;;;;;;24.48;61.91;99875.44;12198980;19;20504;-81
2022/08/01 07:25:52;;;;;;;4.88;2.40;;;;;;;24.68;61.22;99880.28;12184164;19;20018;-81
2022/08/01 07:29:58;;;;;;;3.25;1.92;;;;;;;24.79;60.71;99869.44;12194205;19;20852;-81
2022/08/01 07:34:00;;;;;;;4.03;2.08;;;;;;;24.72;60.40;99866.34;12195683;19;20014;-81
2022/08/01 07:38:02;;;;;;;3.73;1.60;;;;;;;24.54;61.00;99865.66;12167133;19;20463;-81
2022/08/01 07:42:03;;;;;;;3.10;1.95;;;;;;;24.48;60.86;99864.19;12204147;19;20660;-81
2022/08/01 07:46:08;;;;;;;2.75;2.05;;;;;;;24.58;60.73;99858.16;12194692;19;20010;-81
2022/08/01 07:50:12;;;;;;;4.47;2.00;;;;;;;24.67;60.70;99855.28;12182687;19;20010;-82
2022/08/01 07:54:14;;;;;;;2.28;2.00;;;;;;;25.00;59.24;99850.50;12191127;19;20006;-80
2022/08/01 07:58:16;;;;;;;3.83;1.93;;;;;;;25.35;58.21;99855.03;12200772;19;20014;-81
2022/08/01 08:02:18;;;;;;;2.97;1.90;;;;;;;25.85;56.76;99862.44;12179475;19;20520;-80
2022/08/01 08:06:19;;;;;;;2.70;2.07;;;;;;;25.90;55.43;99854.53;12198129;19;20385;-80
2022/08/01 08:10:21;;;;;;;3.00;1.93;;;;;;;25.99;55.25;99853.63;12174279;19;20003;-82
2022/08/01 08:14:23;;;;;;;5.63;2.37;;;;;;;26.09;55.12;99853.16;12199807;19;20406;-81
2022/08/01 08:18:33;;;;;;;2.30;1.77;;;;;;;26.08;54.82;99862.78;12188306;19;21784;-81
2022/08/01 08:22:35;;;;;;;4.80;2.17;;;;;;;26.30;54.32;99853.03;12172544;19;20007;-82
2022/08/01 08:26:37;;;;;;;2.40;1.75;;;;;;;26.44;53.61;99858.28;12204922;19;20460;-81
2022/08/01 08:30:40;;;;;;;4.28;2.05;;;;;;;26.62;53.13;99858.88;12192485;19;20073;-82
2022/08/01 08:34:43;;;;;;;2.93;1.80;;;;;;;26.80;52.68;99866.75;12175764;19;20034;-81
2022/08/01 08:38:44;;;;;;;;;;;;;;;27.05;51.24;99863.81;12198987;19;20483;-82
2022/08/01 08:42:47;;;;;;;6.05;2.20;;;;;;;27.32;50.86;99859.38;12196772;19;19911;-81
2022/08/01 08:46:51;;;;;;;2.63;1.90;;;;;;;27.34;50.25;99867.50;12220142;19;19999;-80
2022/08/01 08:50:53;;;;;;;3.20;1.77;;;;;;;27.25;50.46;99862.81;12215274;19;20007;-83
2022/08/01 08:54:56;;;;;;;3.03;2.00;;;;;;;27.02;50.52;99871.00;12215247;19;20014;-82
2022/08/01 08:58:58;;;;;;;6.70;1.98;;;;;;;26.93;50.30;99869.53;12180786;19;20086;-82
2022/08/01 09:02:59;;;;;;;2.85;1.92;;;;;;;26.85;50.57;99867.66;12213221;19;20099;-82
2022/08/01 09:07:03;;;;;;;2.60;1.80;;;;;;;26.73;50.61;99866.50;12213336;19;20015;-82
2022/08/01 09:11:05;;;;;;;2.35;1.85;;;;;;;26.71;51.05;99868.88;12186788;19;20070;-81
2022/08/01 09:15:07;;;;;;;4.03;2.60;;;;;;;26.84;51.05;99866.03;12200957;19;20122;-82
2022/08/01 09:19:17;;;;;;;3.45;1.95;;;;;;;27.09;50.54;99864.72;12205270;19;20275;-82
2022/08/01 09:23:42;;;;;;;2.72;1.63;;;;;;;27.33;49.69;99860.19;12180095;19;20006;-81
2022/08/01 09:28:04;;;;;;;2.53;1.90;;;;;;;27.58;49.07;99858.88;12207139;19;20011;-81
2022/08/01 09:32:06;;;;;;;3.38;1.83;;;;;;;27.77;48.84;99863.00;12174226;19;20023;-81
2022/08/01 09:36:08;;;;;;;4.47;1.80;;;;;;;27.64;48.85;99863.06;12211474;19;20039;-81
2022/08/01 09:40:15;;;;;;;3.22;1.77;;;;;;;28.15;47.53;99863.19;12208844;19;20477;-81
2022/08/01 09:44:18;;;;;;;3.28;1.83;;;;;;;28.49;46.04;99869.28;12190075;19;20006;-82
2022/08/01 09:49:04;;;;;;;4.28;1.95;;;;;;;28.39;45.36;99861.31;12209185;19;20533;-82
2022/08/01 09:53:13;;;;;;;2.13;1.60;;;;;;;28.12;45.74;99868.78;12189216;19;20026;-83
2022/08/01 09:57:30;;;;;;;2.17;1.63;;;;;;;28.14;46.11;99855.88;12207921;19;20014;-81
2022/08/01 10:01:47;;;;;;;2.58;1.90;;;;;;;27.95;46.47;99862.28;12187400;19;20640;-81
2022/08/01 10:05:51;;;;;;;3.25;1.92;;;;;;;27.86;46.34;99869.31;12216997;19;20013;-82
2022/08/01 10:09:52;;;;;;;3.05;2.00;;;;;;;27.67;47.11;99862.34;12202542;19;20007;-82
2022/08/01 10:13:58;;;;;;;3.95;2.13;;;;;;;27.71;46.97;99859.59;12184303;19;20010;-81
2022/08/01 10:18:02;;;;;;;4.18;2.15;;;;;;;27.96;47.28;99848.94;12205471;19;20018;-81
2022/08/01 10:22:07;;;;;;;4.45;2.15;;;;;;;28.13;46.49;99847.75;12212513;19;20014;-80
2022/08/01 10:26:10;;;;;;;4.05;1.83;;;;;;;28.56;45.73;99855.28;12183051;19;20063;-79
2022/08/01 10:30:12;;;;;;;2.60;1.70;;;;;;;28.91;44.05;99853.59;12192288;19;20039;-79
2022/08/01 10:34:24;;;;;;;3.37;1.73;;;;;;;29.05;43.59;99849.06;12182860;19;20031;-80
2022/08/01 10:38:30;;;;;;;2.78;1.73;;;;;;;28.92;43.14;99853.22;12203023;19;20002;-79
2022/08/01 10:42:34;;;;;;;3.10;2.05;;;;;;;28.99;43.95;99839.19;12211885;19;20030;-80
2022/08/01 10:46:42;;;;;;;7.85;2.03;;;;;;;28.83;43.45;99844.13;12176130;19;20468;-79
2022/08/01 10:50:52;;;;;;;5.05;2.00;;;;;;;28.49;44.23;99849.44;12196869;19;20060;-80
2022/08/01 10:55:06;;;;;;;3.08;1.88;;;;;;;28.55;43.95;99842.28;12206216;19;20409;-80
2022/08/01 10:59:08;;;;;;;2.60;1.98;;;;;;;28.76;43.48;99832.59;12182790;19;20010;-80
2022/08/01 11:03:14;;;;;;;3.13;1.83;;;;;;;29.18;42.67;99829.03;12205276;19;20011;-80
2022/08/01 11:07:23;;;;;;;4.57;1.77;;;;;;;29.79;41.13;99825.34;12205427;19;20011;-79
2022/08/01 11:11:26;;;;;;;2.50;1.40;;;;;;;29.50;40.54;99824.00;12172873;19;20411;-79
2022/08/01 11:15:30;;;;;;;11.30;2.40;;;;;;;29.43;40.71;99827.53;12196376;19;20058;-79
2022/08/01 11:19:50;;;;;;;;;;;;;;;29.80;40.50;99820.50;12168832;19;20027;-79
2022/08/01 11:23:55;;;;;;;3.00;1.70;;;;;;;29.79;40.71;99819.66;12200797;19;19906;-79
2022/08/01 11:28:13;;;;;;;5.18;1.98;;;;;;;29.72;40.63;99814.69;12202148;19;20011;-79
2022/08/01 11:32:26;;;;;;;3.42;1.73;;;;;;;29.56;39.90;99815.97;12176162;19;20019;-79
2022/08/01 11:36:29;;;;;;;13.50;1.85;;;;;;;29.25;40.63;99807.31;12206199;19;20011;-79
2022/08/01 11:41:12;;;;;;;2.17;1.30;;;;;;;28.95;41.55;99812.78;12181967;19;20002;-79
2022/08/01 11:45:15;;;;;;;4.05;1.70;;;;;;;28.67;42.50;99812.97;12195435;19;20391;-80
2022/08/01 11:49:25;;;;;;;2.35;1.60;;;;;;;29.16;41.50;99806.75;12196397;19;21947;-79
2022/08/01 11:53:31;;;;;;;2.88;1.30;;;;;;;30.60;39.14;99804.28;12179223;19;20038;-80
2022/08/01 11:57:34;;;;;;;1.90;1.42;;;;;;;31.63;37.88;99796.16;12197093;19;20072;-80
2022/08/01 12:01:36;;;;;;;1.77;1.30;;;;;;;32.66;36.31;99783.88;12165529;19;20027;-81
2022/08/01 12:05:43;;;;;;;1.98;1.48;;;;;;;33.26;33.91;99779.66;12188149;19;20014;-81
2022/08/01 12:09:46;;;;;;;2.15;1.52;;;;;;;33.91;33.23;99777.66;12192516;19;20007;-81
2022/08/01 12:13:49;;;;;;;1.60;1.35;;;;;;;34.12;32.40;99776.84;12177614;19;20011;-79
2022/08/01 12:17:58;;;;;;;2.30;1.73;;;;;;;34.41;31.23;99777.63;12196846;19;20018;-79
2022/08/01 12:22:14;;;;;;;4.95;2.17;;;;;;;34.82;30.97;99769.31;12203827;19;20031;-79
2022/08/01 12:26:16;;;;;;;2.63;1.80;;;;;;;35.26;30.05;99765.03;12175398;19;20011;-80
2022/08/01 12:30:36;;;;;;;2.28;1.63;;;;;;;35.92;29.19;99764.13;12247470;19;20010;-78
2022/08/01 12:34:38;;;;;;;3.40;1.95;;;;;;;35.88;28.80;99759.66;12182104;19;20347;-79
2022/08/01 12:38:40;;;;;;;2.65;1.95;;;;;;;35.38;29.24;99758.00;12207959;19;20014;-80
2022/08/01 12:42:43;;;;;;;2.28;1.75;;;;;;;34.62;29.78;99771.84;12212842;19;20034;-82
2022/08/01 12:46:45;;;;;;;3.95;1.85;;;;;;;34.63;29.90;99767.78;12188740;19;20015;-79
2022/08/01 12:50:49;;;;;;;2.67;1.88;;;;;;;35.18;29.14;99757.69;12204384;19;20077;-78
2022/08/01 12:55:26;;;;;;;2.00;1.70;;;;;;;35.92;28.73;99748.97;12211141;19;20010;-80
2022/08/01 12:59:35;;;;;;;2.95;1.90;;;;;;;35.55;28.54;99753.41;12186017;19;20171;-79
2022/08/01 13:03:36;;;;;;;2.00;1.80;;;;;;;34.95;29.07;99755.34;12210209;19;20780;-79
2022/08/01 13:07:43;;;;;;;3.08;2.00;;;;;;;34.45;29.81;99755.56;12190968;19;20447;-80
2022/08/01 13:11:47;;;;;;;1.70;1.60;;;;;;;35.47;28.85;99746.88;12196526;19;20007;-79
2022/08/01 13:16:05;;;;;;;2.88;1.90;;;;;;;36.31;27.46;99747.78;12216280;19;20378;-79
2022/08/01 13:20:09;;;;;;;1.52;1.42;;;;;;;36.45;27.53;99747.63;12180486;19;20015;-78
2022/08/01 13:24:12;;;;;;;2.75;1.50;;;;;;;36.44;27.71;99755.41;12220546;19;20078;-78
2022/08/01 13:28:15;;;;;;;2.95;1.80;;;;;;;36.81;26.99;99745.13;12213855;19;20418;-80
2022/08/01 13:32:20;;;;;;;2.50;1.73;;;;;;;36.93;27.23;99741.69;12185799;19;20011;-79
2022/08/01 13:36:31;;;;;;;2.72;1.70;;;;;;;37.60;26.51;99744.84;12209711;19;20512;-80
2022/08/01 13:40:33;;;;;;;3.63;1.58;;;;;;;36.91;26.17;99740.47;12189298;19;20054;-80
2022/08/01 13:44:35;;;;;;;1.75;1.50;;;;;;;35.98;27.35;99736.59;12208202;19;20014;-80
2022/08/01 13:48:37;;;;;;;2.92;1.95;;;;;;;35.67;27.97;99738.56;12213455;19;20006;-79
2022/08/01 13:52:39;;;;;;;2.20;1.50;;;;;;;35.26;28.04;99736.38;12185404;19;20015;-79
2022/08/01 13:56:41;;;;;;;3.10;1.63;;;;;;;34.96;28.52;99739.81;12204796;19;20075;-80
2022/08/01 14:00:43;;;;;;;1.65;1.50;;;;;;;34.72;29.10;99735.84;12206595;19;20367;-80
2022/08/01 14:04:44;;;;;;;1.80;1.50;;;;;;;34.30;29.23;99734.75;12182975;19;20014;-79
2022/08/01 14:08:46;;;;;;;;;;;;;;;34.02;29.39;99730.69;12201921;19;20493;-80
2022/08/01 14:12:48;;;;;;;2.13;1.73;;;;;;;34.66;29.10;99732.59;12206401;19;20330;-81
2022/08/01 14:16:50;;;;;;;3.17;1.50;;;;;;;35.79;27.90;99726.56;12175390;19;20027;-81
2022/08/01 14:20:51;;;;;;;2.08;1.58;;;;;;;36.71;26.69;99734.63;12208707;19;20041;-80
2022/08/01 14:24:55;;;;;;;2.75;1.50;;;;;;;36.69;26.56;99732.16;12215502;19;20673;-80
2022/08/01 14:29:02;;;;;;;2.10;1.63;;;;;;;35.74;26.90;99737.66;12184324;19;20010;-79
2022/08/01 14:33:04;;;;;;;2.00;1.67;;;;;;;34.96;27.66;99734.09;12203119;19;20002;-80
2022/08/01 14:37:05;;;;;;;2.30;1.63;;;;;;;34.13;28.71;99730.72;12213418;19;20011;-80
2022/08/01 14:41:08;;;;;;;2.88;1.40;;;;;;;33.40;29.95;99727.44;12188829;19;20361;-82
2022/08/01 14:45:11;;;;;;;;;;;;;;;32.87;30.29;99724.06;12198796;19;20088;-79
2022/08/01 14:49:13;;;;;;;2.92;1.50;;;;;;;32.75;30.45;99717.91;12202811;19;20265;-79
2022/08/01 14:53:14;;;;;;;;;;;;;;;32.43;31.62;99712.88;12188372;19;20078;-81
2022/08/01 14:57:18;;;;;;;3.08;1.60;;;;;;;32.28;31.45;99716.88;12199507;19;19918;-81
2022/08/01 15:01:20;;;;;;;2.08;1.40;;;;;;;32.06;31.89;99713.06;12209596;19;20027;-81
2022/08/01 15:05:22;;;;;;;2.45;1.45;;;;;;;31.81;32.17;99722.25;12179742;19;20010;-82
2022/08/01 15:09:23;;;;;;;3.25;1.67;;;;;;;31.46;32.95;99719.94;12196721;19;20039;-81
2022/08/01 15:13:25;;;;;;;2.65;1.50;;;;;;;31.03;33.32;99725.19;12170165;19;20015;-81
2022/08/01 15:17:31;;;;;;;3.80;1.15;;;;;;;30.74;34.19;99721.19;12212107;19;20016;-81
2022/08/01 15:21:33;;;;;;;1.58;1.35;;;;;;;30.40;34.76;99726.84;12199356;19;20031;-81
2022/08/01 15:25:42;;;;;;;3.60;1.40;;;;;;;30.15;35.17;99729.31;12185837;19;20023;-81
2022/08/01 15:29:45;;;;;;;4.75;1.70;;;;;;;29.86;35.94;99726.03;12197115;19;20019;-81
2022/08/01 15:33:46;;;;;;;1.95;1.45;;;;;;;29.47;36.59;99743.25;12062394;19;2768383;-81
2022/08/01 15:37:48;;;;;;;1.98;1.40;;;;;;;28.95;38.07;99764.56;12183634;19;20018;-80
2022/08/01 15:41:50;;;;;;;9.05;2.67;;;;;;;27.93;45.26;99787.38;12212673;19;20007;-82
2022/08/01 15:45:51;;;;;;;4.65;2.08;;;;;;;26.28;51.75;99788.41;12203776;19;20007;-85
2022/08/01 15:49:55;;;;;;;4.77;2.13;;;;;;;25.15;56.96;99794.69;12185275;19;20002;-85
2022/08/01 15:53:57;;;;;;;2.67;1.70;;;;;;;24.28;60.87;99789.75;12211439;19;20607;-84
2022/08/01 15:57:59;;;;;;;5.18;1.52;;;;;;;23.78;63.44;99784.94;12210320;19;20070;-83
2022/08/01 16:02:01;;;;;;;3.50;1.40;;;;;;;23.64;65.79;99760.63;12191916;19;20074;-85
2022/08/01 16:06:02;;;;;;;2.67;1.77;;;;;;;23.77;64.48;99764.41;12217595;19;20014;-83
2022/08/01 16:10:06;;;;;;;2.17;1.57;;;;;;;24.04;63.26;99767.91;12216103;19;20027;-84
2022/08/01 16:14:08;;;;;;;3.72;1.63;;;;;;;24.02;63.47;99761.78;12189996;19;20018;-84
2022/08/01 16:18:14;;;;;;;3.85;1.42;;;;;;;24.04;61.31;99760.28;12211754;19;20080;-83
2022/08/01 16:22:17;;;;;;;1.45;1.20;;;;;;;23.94;59.87;99763.47;12207500;19;20010;-84
2022/08/01 16:26:19;;;;;;;;;;;;;;;23.89;61.02;99758.06;12194578;19;20034;-84
2022/08/01 16:30:28;;;;;;;7.10;3.50;;;;;;;23.88;58.77;99768.50;12206214;19;20178;-84
2022/08/01 16:34:32;;;;;;;2.60;1.52;;;;;;;23.75;60.79;99765.91;12191667;19;19999;-84
2022/08/01 16:38:35;;;;;;;2.28;1.38;;;;;;;23.76;60.60;99764.75;12205087;19;20093;-83
2022/08/01 16:42:37;;;;;;;3.72;1.65;;;;;;;23.82;61.55;99764.19;12235889;19;20040;-82
2022/08/01 16:46:39;;;;;;;3.75;1.75;;;;;;;23.78;66.30;99757.63;12223467;19;19999;-85
2022/08/01 16:50:41;;;;;;;3.08;2.15;;;;;;;23.66;71.07;99744.25;12213233;19;20043;-83
2022/08/01 16:54:43;;;;;;;4.00;2.40;;;;;;;23.49;75.97;99727.44;12210265;19;20533;-83
2022/08/01 16:58:44;;;;;;;5.65;2.30;;;;;;;23.40;75.09;99732.28;12194530;19;20004;-83
2022/08/01 17:02:46;;;;;;;5.03;2.77;;;;;;;23.36;75.37;99728.53;12217560;19;20003;-83
2022/08/01 17:06:51;;;;;;;4.73;2.57;;;;;;;23.25;77.45;99725.25;12227283;19;20369;-83
2022/08/01 17:10:52;;;;;;;4.50;2.45;;;;;;;23.25;77.27;99730.06;12208336;19;20361;-83
2022/08/01 17:14:54;;;;;;;4.82;2.25;;;;;;;23.23;78.58;99747.28;12227592;19;20539;-83
2022/08/01 17:18:56;;;;;;;3.90;2.53;;;;;;;23.24;77.75;99751.72;12218599;19;20631;-84
2022/08/01 17:22:58;;;;;;;2.90;2.10;;;;;;;23.28;78.48;99760.31;12212664;19;20010;-84
2022/08/01 17:27:00;;;;;;;2.90;1.92;;;;;;;23.23;79.37;99747.28;12231113;19;20295;-84
2022/08/01 17:31:02;;;;;;;3.63;2.60;;;;;;;23.20;78.89;99759.16;12227045;19;20010;-83
2022/08/01 17:35:11;;;;;;;3.08;2.08;;;;;;;23.18;79.83;99756.69;12209941;19;20023;-84
2022/08/01 17:39:12;;;;;;;3.08;2.08;;;;;;;23.16;80.28;99747.75;12229157;19;20044;-84
2022/08/01 17:43:14;;;;;;;5.87;3.30;;;;;;;23.19;80.45;99755.53;12223208;19;20460;-84
2022/08/01 17:47:16;;;;;;;5.68;3.55;;;;;;;23.19;80.52;99752.72;12204387;19;20495;-84
2022/08/01 17:51:38;;;;;;;3.97;2.35;;;;;;;23.19;79.88;99754.69;12224355;19;20386;-84
2022/08/01 17:55:42;;;;;;;3.22;2.20;;;;;;;23.27;80.22;99756.66;12187755;19;20011;-84
2022/08/01 17:59:57;;;;;;;3.28;2.53;;;;;;;23.46;79.52;99747.81;12219821;19;20059;-84
2022/08/01 18:03:59;;;;;;;4.63;3.10;;;;;;;23.64;77.16;99754.19;12213221;19;20019;-84
2022/08/01 18:08:02;;;;;;;5.35;2.85;;;;;;;24.03;74.87;99749.34;12193084;19;20010;-84
2022/08/01 18:12:05;;;;;;;4.65;3.00;;;;;;;24.19;73.42;99752.41;12218376;19;20010;-84
2022/08/01 18:16:11;;;;;;;5.15;3.40;;;;;;;24.31;73.75;99760.91;12221288;19;20017;-84
2022/08/01 18:20:13;;;;;;;5.68;3.70;;;;;;;24.38;72.84;99764.00;12187750;19;20019;-84
2022/08/01 18:24:16;;;;;;;5.40;3.13;;;;;;;24.49;71.40;99773.72;12219044;19;20385;-84
2022/08/01 18:28:18;;;;;;;;;;;;;;;24.65;71.90;99785.16;12217542;19;20497;-84
2022/08/01 18:32:34;;;;;;;5.43;3.80;;;;;;;24.91;71.06;99782.13;12192386;19;19980;-84
2022/08/01 18:36:36;;;;;;;6.30;3.70;;;;;;;25.03;69.57;99792.63;12216252;19;20085;-84
2022/08/01 18:40:41;;;;;;;7.97;3.50;;;;;;;25.00;69.73;99787.66;12204352;19;20006;-84
2022/08/01 18:44:43;;;;;;;5.30;3.70;;;;;;;24.98;70.50;99790.81;12220416;19;20055;-83
2022/08/01 18:48:44;;;;;;;5.35;3.63;;;;;;;24.98;70.07;99799.28;12221072;19;20070;-83
2022/08/01 18:52:46;;;;;;;6.07;4.13;;;;;;;24.95;70.50;99804.78;12208545;19;20011;-84
2022/08/01 18:56:48;;;;;;;5.38;3.45;;;;;;;24.83;71.06;99802.75;12224713;19;20046;-84
2022/08/01 19:00:50;;;;;;;6.63;3.60;;;;;;;24.69;71.99;99814.31;12215557;19;20032;-84